sensor_id;sensor_type;location;lat;lon;timestamp;temperature;humidity
6954;DHT22;3516;47.980;8.808;2024-01-27T00:01:34;0.90;99.90
6954;DHT22;3516;47.980;8.808;2024-01-27T00:04:01;0.80;99.90
6954;DHT22;3516;47.980;8.808;2024-01-27T00:06:28;0.80;99.90
6954;DHT22;3516;47.980;8.808;2024-01-27T00:08:54;0.80;99.90
6954;DHT22;3516;47.980;8.808;2024-01-27T00:11:22;0.80;99.90
6954;DHT22;3516;47.980;8.808;2024-01-27T00:13:49;0.80;99.90
6954;DHT22;3516;47.980;8.808;2024-01-27T00:16:16;0.80;99.90
6954;DHT22;3516;47.980;8.808;2024-01-27T00:18:43;0.70;99.90
6954;DHT22;3516;47.980;8.808;2024-01-27T00:21:09;0.70;99.90
6954;DHT22;3516;47.980;8.808;2024-01-27T00:23:36;0.70;99.90
6954;DHT22;3516;47.980;8.808;2024-01-27T00:26:03;0.70;99.90
6954;DHT22;3516;47.980;8.808;2024-01-27T00:28:31;0.70;99.90
6954;DHT22;3516;47.980;8.808;2024-01-27T00:30:57;0.70;99.90
6954;DHT22;3516;47.980;8.808;2024-01-27T00:33:24;0.70;99.90
6954;DHT22;3516;47.980;8.808;2024-01-27T00:35:51;0.70;99.90
6954;DHT22;3516;47.980;8.808;2024-01-27T00:38:17;0.70;99.90
6954;DHT22;3516;47.980;8.808;2024-01-27T00:40:44;0.70;99.90
6954;DHT22;3516;47.980;8.808;2024-01-27T00:43:10;0.60;99.90
6954;DHT22;3516;47.980;8.808;2024-01-27T00:45:38;0.50;99.90
6954;DHT22;3516;47.980;8.808;2024-01-27T00:48:05;0.50;99.90
6954;DHT22;3516;47.980;8.808;2024-01-27T00:50:32;0.50;99.90
6954;DHT22;3516;47.980;8.808;2024-01-27T05:30:03;0.40;99.90
6954;DHT22;3516;47.980;8.808;2024-01-27T05:32:30;0.20;99.90
6954;DHT22;3516;47.980;8.808;2024-01-27T05:34:57;0.20;99.90
6954;DHT22;3516;47.980;8.808;2024-01-27T05:37:23;0.20;99.90
6954;DHT22;3516;47.980;8.808;2024-01-27T05:39:50;0.20;99.90
6954;DHT22;3516;47.980;8.808;2024-01-27T05:42:16;0.20;99.90
6954;DHT22;3516;47.980;8.808;2024-01-27T05:44:43;0.20;99.90
6954;DHT22;3516;47.980;8.808;2024-01-27T05:47:11;0.20;99.90
6954;DHT22;3516;47.980;8.808;2024-01-27T05:49:38;0.20;99.90
6954;DHT22;3516;47.980;8.808;2024-01-27T05:52:05;0.20;99.90
6954;DHT22;3516;47.980;8.808;2024-01-27T05:54:31;0.20;99.90
6954;DHT22;3516;47.980;8.808;2024-01-27T05:56:58;0.20;99.90
6954;DHT22;3516;47.980;8.808;2024-01-27T05:59:25;0.20;99.90
6954;DHT22;3516;47.980;8.808;2024-01-27T06:01:51;0.10;99.90
6954;DHT22;3516;47.980;8.808;2024-01-27T06:04:19;0.10;99.90
6954;DHT22;3516;47.980;8.808;2024-01-27T06:06:46;0.00;99.90
6954;DHT22;3516;47.980;8.808;2024-01-27T06:09:12;0.00;99.90
6954;DHT22;3516;47.980;8.808;2024-01-27T06:11:39;-0.10;99.90
6954;DHT22;3516;47.980;8.808;2024-01-27T06:14:06;-0.10;99.90
6954;DHT22;3516;47.980;8.808;2024-01-27T06:16:32;-0.10;99.90
6954;DHT22;3516;47.980;8.808;2024-01-27T06:19:00;0.00;99.90
6954;DHT22;3516;47.980;8.808;2024-01-27T06:21:28;0.00;99.90
6954;DHT22;3516;47.980;8.808;2024-01-27T06:23:55;0.00;99.90
6954;DHT22;3516;47.980;8.808;2024-01-27T06:26:21;0.00;99.90
6954;DHT22;3516;47.980;8.808;2024-01-27T06:28:48;0.00;99.90
6954;DHT22;3516;47.980;8.808;2024-01-27T06:31:15;-0.10;99.90
6954;DHT22;3516;47.980;8.808;2024-01-27T06:33:42;-0.10;99.90
6954;DHT22;3516;47.980;8.808;2024-01-27T06:36:08;-0.10;99.90
6954;DHT22;3516;47.980;8.808;2024-01-27T06:38:37;-0.10;99.90
6954;DHT22;3516;47.980;8.808;2024-01-27T06:41:03;-0.10;99.90
6954;DHT22;3516;47.980;8.808;2024-01-27T06:43:30;-0.10;99.90
6954;DHT22;3516;47.980;8.808;2024-01-27T06:45:56;-0.10;99.90
6954;DHT22;3516;47.980;8.808;2024-01-27T06:48:23;-0.10;99.90
6954;DHT22;3516;47.980;8.808;2024-01-27T06:50:50;-0.10;99.90
6954;DHT22;3516;47.980;8.808;2024-01-27T06:53:17;-0.10;99.90
6954;DHT22;3516;47.980;8.808;2024-01-27T06:55:45;-0.10;99.90
6954;DHT22;3516;47.980;8.808;2024-01-27T06:58:12;0.00;99.90
6954;DHT22;3516;47.980;8.808;2024-01-27T07:00:39;0.00;99.90
6954;DHT22;3516;47.980;8.808;2024-01-27T07:03:06;0.00;99.90
6954;DHT22;3516;47.980;8.808;2024-01-27T07:05:33;0.10;99.90
6954;DHT22;3516;47.980;8.808;2024-01-27T07:08:04;0.10;99.90
6954;DHT22;3516;47.980;8.808;2024-01-27T07:10:31;0.10;99.90
6954;DHT22;3516;47.980;8.808;2024-01-27T07:12:59;0.10;99.90
6954;DHT22;3516;47.980;8.808;2024-01-27T07:15:25;0.00;99.90
6954;DHT22;3516;47.980;8.808;2024-01-27T07:17:52;-0.10;99.90
6954;DHT22;3516;47.980;8.808;2024-01-27T07:20:19;-0.20;99.90
6954;DHT22;3516;47.980;8.808;2024-01-27T07:22:46;-0.20;99.90
6954;DHT22;3516;47.980;8.808;2024-01-27T07:25:13;-0.20;99.90
6954;DHT22;3516;47.980;8.808;2024-01-27T07:27:39;-0.30;99.90
6954;DHT22;3516;47.980;8.808;2024-01-27T07:30:08;-0.30;99.90
6954;DHT22;3516;47.980;8.808;2024-01-27T07:32:36;-0.30;99.90
6954;DHT22;3516;47.980;8.808;2024-01-27T07:35:03;-0.40;99.90
6954;DHT22;3516;47.980;8.808;2024-01-27T07:37:31;-0.40;99.90
6954;DHT22;3516;47.980;8.808;2024-01-27T07:39:57;-0.30;99.90
6954;DHT22;3516;47.980;8.808;2024-01-27T07:42:24;-0.40;99.90
6954;DHT22;3516;47.980;8.808;2024-01-27T07:44:50;-0.40;99.90
6954;DHT22;3516;47.980;8.808;2024-01-27T07:47:18;-0.50;99.90
6954;DHT22;3516;47.980;8.808;2024-01-27T07:49:45;-0.60;99.90
6954;DHT22;3516;47.980;8.808;2024-01-27T07:52:11;-0.60;99.90
6954;DHT22;3516;47.980;8.808;2024-01-27T07:54:38;-0.70;99.90
6954;DHT22;3516;47.980;8.808;2024-01-27T07:57:05;-0.70;99.90
6954;DHT22;3516;47.980;8.808;2024-01-27T07:59:32;-0.70;99.90
6954;DHT22;3516;47.980;8.808;2024-01-27T08:01:59;-0.70;99.90
6954;DHT22;3516;47.980;8.808;2024-01-27T08:04:27;-0.70;99.90
6954;DHT22;3516;47.980;8.808;2024-01-27T08:06:53;-0.60;99.90
6954;DHT22;3516;47.980;8.808;2024-01-27T08:09:20;-0.50;99.90
6954;DHT22;3516;47.980;8.808;2024-01-27T08:11:47;-0.50;99.90
6954;DHT22;3516;47.980;8.808;2024-01-27T08:14:16;-0.50;99.90
6954;DHT22;3516;47.980;8.808;2024-01-27T08:16:43;-0.50;99.90
6954;DHT22;3516;47.980;8.808;2024-01-27T08:19:09;-0.50;99.90
6954;DHT22;3516;47.980;8.808;2024-01-27T08:21:37;-0.50;99.90
6954;DHT22;3516;47.980;8.808;2024-01-27T08:24:04;-0.50;99.90
6954;DHT22;3516;47.980;8.808;2024-01-27T08:26:31;-0.40;99.90
6954;DHT22;3516;47.980;8.808;2024-01-27T08:28:57;-0.40;99.90
6954;DHT22;3516;47.980;8.808;2024-01-27T08:31:24;-0.40;99.90
6954;DHT22;3516;47.980;8.808;2024-01-27T08:33:50;-0.30;99.90
6954;DHT22;3516;47.980;8.808;2024-01-27T08:36:17;-0.40;99.90
6954;DHT22;3516;47.980;8.808;2024-01-27T08:38:45;-0.20;99.90
6954;DHT22;3516;47.980;8.808;2024-01-27T08:41:11;-0.10;99.90
6954;DHT22;3516;47.980;8.808;2024-01-27T08:43:38;0.00;99.90
6954;DHT22;3516;47.980;8.808;2024-01-27T08:46:05;0.10;99.90
6954;DHT22;3516;47.980;8.808;2024-01-27T08:48:33;0.10;99.90
6954;DHT22;3516;47.980;8.808;2024-01-27T08:50:59;0.20;99.90
6954;DHT22;3516;47.980;8.808;2024-01-27T08:53:26;0.20;99.90
6954;DHT22;3516;47.980;8.808;2024-01-27T08:55:53;0.20;99.90
6954;DHT22;3516;47.980;8.808;2024-01-27T08:58:20;0.20;99.90
6954;DHT22;3516;47.980;8.808;2024-01-27T09:00:46;0.20;99.90
6954;DHT22;3516;47.980;8.808;2024-01-27T09:03:13;0.10;99.90
6954;DHT22;3516;47.980;8.808;2024-01-27T09:05:40;0.10;99.90
6954;DHT22;3516;47.980;8.808;2024-01-27T09:08:09;0.00;99.90
6954;DHT22;3516;47.980;8.808;2024-01-27T09:10:35;-0.10;99.90
6954;DHT22;3516;47.980;8.808;2024-01-27T09:13:03;-0.10;99.90
6954;DHT22;3516;47.980;8.808;2024-01-27T09:15:30;0.10;99.90
6954;DHT22;3516;47.980;8.808;2024-01-27T09:17:57;0.20;99.90
6954;DHT22;3516;47.980;8.808;2024-01-27T09:20:23;0.40;99.90
6954;DHT22;3516;47.980;8.808;2024-01-27T09:22:50;0.50;99.90
6954;DHT22;3516;47.980;8.808;2024-01-27T09:25:17;0.60;99.90
6954;DHT22;3516;47.980;8.808;2024-01-27T09:27:43;0.60;99.90
6954;DHT22;3516;47.980;8.808;2024-01-27T09:30:12;0.60;99.90
6954;DHT22;3516;47.980;8.808;2024-01-27T09:32:38;0.60;99.90
6954;DHT22;3516;47.980;8.808;2024-01-27T09:35:05;0.70;99.90
6954;DHT22;3516;47.980;8.808;2024-01-27T09:37:32;0.80;99.90
6954;DHT22;3516;47.980;8.808;2024-01-27T09:39:58;0.70;99.90
6954;DHT22;3516;47.980;8.808;2024-01-27T09:42:26;0.80;99.90
6954;DHT22;3516;47.980;8.808;2024-01-27T09:44:52;0.90;99.90
6954;DHT22;3516;47.980;8.808;2024-01-27T09:47:21;0.90;99.90
6954;DHT22;3516;47.980;8.808;2024-01-27T09:49:48;1.00;99.90
6954;DHT22;3516;47.980;8.808;2024-01-27T09:52:15;1.00;99.90
6954;DHT22;3516;47.980;8.808;2024-01-27T09:54:42;1.10;99.90
6954;DHT22;3516;47.980;8.808;2024-01-27T09:57:08;1.20;99.90
6954;DHT22;3516;47.980;8.808;2024-01-27T09:59:35;1.20;99.90
6954;DHT22;3516;47.980;8.808;2024-01-27T10:02:02;0.90;99.90
6954;DHT22;3516;47.980;8.808;2024-01-27T10:04:31;1.30;99.90
6954;DHT22;3516;47.980;8.808;2024-01-27T10:06:58;1.30;99.90
6954;DHT22;3516;47.980;8.808;2024-01-27T10:09:25;1.30;99.90
6954;DHT22;3516;47.980;8.808;2024-01-27T10:11:51;1.30;99.90
6954;DHT22;3516;47.980;8.808;2024-01-27T10:14:20;1.30;99.90
6954;DHT22;3516;47.980;8.808;2024-01-27T10:16:46;1.40;99.90
6954;DHT22;3516;47.980;8.808;2024-01-27T10:19:14;1.70;99.90
6954;DHT22;3516;47.980;8.808;2024-01-27T10:21:44;1.90;99.90
6954;DHT22;3516;47.980;8.808;2024-01-27T10:24:10;2.10;99.90
6954;DHT22;3516;47.980;8.808;2024-01-27T10:26:37;2.20;99.90
6954;DHT22;3516;47.980;8.808;2024-01-27T10:29:04;2.20;99.90
6954;DHT22;3516;47.980;8.808;2024-01-27T10:31:32;2.20;99.90
6954;DHT22;3516;47.980;8.808;2024-01-27T10:33:59;2.10;99.90
6954;DHT22;3516;47.980;8.808;2024-01-27T10:36:27;2.10;99.90
6954;DHT22;3516;47.980;8.808;2024-01-27T10:38:55;2.10;99.90
6954;DHT22;3516;47.980;8.808;2024-01-27T10:41:22;2.10;99.90
6954;DHT22;3516;47.980;8.808;2024-01-27T10:43:51;2.10;99.90
6954;DHT22;3516;47.980;8.808;2024-01-27T10:46:19;2.10;99.90
6954;DHT22;3516;47.980;8.808;2024-01-27T10:48:47;2.20;99.90
6954;DHT22;3516;47.980;8.808;2024-01-27T10:51:15;2.20;99.90
6954;DHT22;3516;47.980;8.808;2024-01-27T10:53:43;2.30;99.90
6954;DHT22;3516;47.980;8.808;2024-01-27T10:56:14;2.40;99.90
6954;DHT22;3516;47.980;8.808;2024-01-27T10:58:40;2.40;99.90
6954;DHT22;3516;47.980;8.808;2024-01-27T11:01:08;2.50;99.90
6954;DHT22;3516;47.980;8.808;2024-01-27T11:03:36;2.50;99.90
6954;DHT22;3516;47.980;8.808;2024-01-27T11:06:03;2.60;99.90
6954;DHT22;3516;47.980;8.808;2024-01-27T11:08:31;2.60;99.90
6954;DHT22;3516;47.980;8.808;2024-01-27T11:10:58;2.60;99.90
6954;DHT22;3516;47.980;8.808;2024-01-27T11:13:26;2.60;99.90
6954;DHT22;3516;47.980;8.808;2024-01-27T11:15:54;2.70;99.90
6954;DHT22;3516;47.980;8.808;2024-01-27T11:18:20;2.80;99.90
6954;DHT22;3516;47.980;8.808;2024-01-27T11:20:47;2.80;99.90
6954;DHT22;3516;47.980;8.808;2024-01-27T11:23:14;2.80;99.90
6954;DHT22;3516;47.980;8.808;2024-01-27T11:25:40;2.90;99.90
6954;DHT22;3516;47.980;8.808;2024-01-27T11:28:10;2.90;99.90
6954;DHT22;3516;47.980;8.808;2024-01-27T11:30:39;3.00;99.90
6954;DHT22;3516;47.980;8.808;2024-01-27T11:33:06;3.10;99.90
6954;DHT22;3516;47.980;8.808;2024-01-27T11:35:33;3.20;99.90
6954;DHT22;3516;47.980;8.808;2024-01-27T11:38:00;3.30;99.90
6954;DHT22;3516;47.980;8.808;2024-01-27T11:40:26;3.40;99.90
6954;DHT22;3516;47.980;8.808;2024-01-27T11:42:54;3.50;99.90
6954;DHT22;3516;47.980;8.808;2024-01-27T11:45:22;3.70;99.90
6954;DHT22;3516;47.980;8.808;2024-01-27T11:47:49;3.70;99.90
6954;DHT22;3516;47.980;8.808;2024-01-27T11:50:17;3.80;99.90
6954;DHT22;3516;47.980;8.808;2024-01-27T11:52:43;3.80;99.90
6954;DHT22;3516;47.980;8.808;2024-01-27T11:55:10;3.90;99.90
6954;DHT22;3516;47.980;8.808;2024-01-27T11:57:37;4.00;99.90
6954;DHT22;3516;47.980;8.808;2024-01-27T12:00:04;4.10;99.90
6954;DHT22;3516;47.980;8.808;2024-01-27T12:02:31;4.10;99.90
6954;DHT22;3516;47.980;8.808;2024-01-27T12:04:59;4.20;99.90
6954;DHT22;3516;47.980;8.808;2024-01-27T12:07:26;4.20;99.90
6954;DHT22;3516;47.980;8.808;2024-01-27T12:09:52;4.20;99.90
6954;DHT22;3516;47.980;8.808;2024-01-27T12:12:19;4.30;99.90
6954;DHT22;3516;47.980;8.808;2024-01-27T12:14:46;4.40;99.90
6954;DHT22;3516;47.980;8.808;2024-01-27T12:17:13;4.40;99.90
6954;DHT22;3516;47.980;8.808;2024-01-27T12:19:45;4.40;99.90
6954;DHT22;3516;47.980;8.808;2024-01-27T12:22:21;4.40;99.90
6954;DHT22;3516;47.980;8.808;2024-01-27T12:24:48;4.50;99.90
6954;DHT22;3516;47.980;8.808;2024-01-27T12:27:15;4.50;99.90
6954;DHT22;3516;47.980;8.808;2024-01-27T12:29:42;4.60;99.90
6954;DHT22;3516;47.980;8.808;2024-01-27T12:32:09;4.60;99.90
6954;DHT22;3516;47.980;8.808;2024-01-27T12:34:39;4.60;99.90
6954;DHT22;3516;47.980;8.808;2024-01-27T12:37:05;4.60;99.90
6954;DHT22;3516;47.980;8.808;2024-01-27T12:39:34;4.60;99.90
6954;DHT22;3516;47.980;8.808;2024-01-27T12:42:01;4.70;99.90
6954;DHT22;3516;47.980;8.808;2024-01-27T12:44:28;4.70;99.90
6954;DHT22;3516;47.980;8.808;2024-01-27T12:46:54;4.80;99.90
6954;DHT22;3516;47.980;8.808;2024-01-27T12:49:22;4.80;99.90
6954;DHT22;3516;47.980;8.808;2024-01-27T12:51:49;4.80;99.90
6954;DHT22;3516;47.980;8.808;2024-01-27T12:54:16;4.80;99.90
6954;DHT22;3516;47.980;8.808;2024-01-27T12:56:44;4.80;99.90
6954;DHT22;3516;47.980;8.808;2024-01-27T12:59:11;4.80;99.90
6954;DHT22;3516;47.980;8.808;2024-01-27T13:01:39;4.80;99.90
6954;DHT22;3516;47.980;8.808;2024-01-27T13:04:05;4.80;99.90
6954;DHT22;3516;47.980;8.808;2024-01-27T13:06:32;4.80;99.90
6954;DHT22;3516;47.980;8.808;2024-01-27T13:08:59;4.80;99.90
6954;DHT22;3516;47.980;8.808;2024-01-27T13:11:25;4.70;99.90
6954;DHT22;3516;47.980;8.808;2024-01-27T13:13:53;4.70;99.90
6954;DHT22;3516;47.980;8.808;2024-01-27T13:16:20;4.70;99.90
6954;DHT22;3516;47.980;8.808;2024-01-27T13:18:46;4.60;99.90
6954;DHT22;3516;47.980;8.808;2024-01-27T13:21:13;4.60;99.90
6954;DHT22;3516;47.980;8.808;2024-01-27T13:23:39;4.60;99.90
6954;DHT22;3516;47.980;8.808;2024-01-27T13:26:06;4.50;99.90
6954;DHT22;3516;47.980;8.808;2024-01-27T13:28:33;4.50;99.90
6954;DHT22;3516;47.980;8.808;2024-01-27T13:31:01;4.40;99.90
6954;DHT22;3516;47.980;8.808;2024-01-27T13:33:27;4.40;99.90
6954;DHT22;3516;47.980;8.808;2024-01-27T13:35:54;4.30;99.90
6954;DHT22;3516;47.980;8.808;2024-01-27T13:38:21;4.20;99.90
6954;DHT22;3516;47.980;8.808;2024-01-27T13:40:48;4.20;99.90
6954;DHT22;3516;47.980;8.808;2024-01-27T13:43:15;4.20;99.90
6954;DHT22;3516;47.980;8.808;2024-01-27T13:45:42;4.10;99.90
6954;DHT22;3516;47.980;8.808;2024-01-27T13:48:10;4.10;99.90
6954;DHT22;3516;47.980;8.808;2024-01-27T13:50:36;4.00;99.90
6954;DHT22;3516;47.980;8.808;2024-01-27T13:53:03;4.00;99.90
6954;DHT22;3516;47.980;8.808;2024-01-27T16:33:33;1.00;99.90
6954;DHT22;3516;47.980;8.808;2024-01-27T16:36:00;1.10;99.90
6954;DHT22;3516;47.980;8.808;2024-01-27T16:38:26;0.90;99.90
6954;DHT22;3516;47.980;8.808;2024-01-27T16:40:53;0.80;99.90
6954;DHT22;3516;47.980;8.808;2024-01-27T16:43:19;0.80;99.90
6954;DHT22;3516;47.980;8.808;2024-01-27T16:45:46;0.70;99.90
6954;DHT22;3516;47.980;8.808;2024-01-27T16:48:14;0.70;99.90
6954;DHT22;3516;47.980;8.808;2024-01-27T16:50:41;0.70;99.90
6954;DHT22;3516;47.980;8.808;2024-01-27T16:53:08;0.60;99.90
6954;DHT22;3516;47.980;8.808;2024-01-27T16:55:35;0.60;99.90
6954;DHT22;3516;47.980;8.808;2024-01-27T16:58:03;0.50;99.90
6954;DHT22;3516;47.980;8.808;2024-01-27T17:00:30;0.50;99.90
6954;DHT22;3516;47.980;8.808;2024-01-27T17:02:56;0.40;99.90
6954;DHT22;3516;47.980;8.808;2024-01-27T17:05:23;0.40;99.90
6954;DHT22;3516;47.980;8.808;2024-01-27T17:07:51;0.30;99.90
6954;DHT22;3516;47.980;8.808;2024-01-27T17:10:18;0.30;99.90
6954;DHT22;3516;47.980;8.808;2024-01-27T17:12:45;0.30;99.90
6954;DHT22;3516;47.980;8.808;2024-01-27T17:15:11;0.20;99.90
6954;DHT22;3516;47.980;8.808;2024-01-27T17:17:38;0.20;99.90
6954;DHT22;3516;47.980;8.808;2024-01-27T17:20:05;0.10;99.90
6954;DHT22;3516;47.980;8.808;2024-01-27T17:22:33;0.10;99.90
6954;DHT22;3516;47.980;8.808;2024-01-27T17:25:01;0.10;99.90
6954;DHT22;3516;47.980;8.808;2024-01-27T17:27:28;0.10;99.90
6954;DHT22;3516;47.980;8.808;2024-01-27T17:29:55;0.00;99.90
6954;DHT22;3516;47.980;8.808;2024-01-27T17:32:21;0.00;99.90
6954;DHT22;3516;47.980;8.808;2024-01-27T17:34:48;0.00;99.90
6954;DHT22;3516;47.980;8.808;2024-01-27T17:37:14;0.00;99.90
6954;DHT22;3516;47.980;8.808;2024-01-27T17:39:41;-0.10;99.90
6954;DHT22;3516;47.980;8.808;2024-01-27T17:42:09;-0.10;99.90
6954;DHT22;3516;47.980;8.808;2024-01-27T17:44:35;-0.10;99.90
6954;DHT22;3516;47.980;8.808;2024-01-27T17:47:02;-0.20;99.90
6954;DHT22;3516;47.980;8.808;2024-01-27T17:49:29;-0.20;99.90
6954;DHT22;3516;47.980;8.808;2024-01-27T17:51:55;-0.20;99.90
6954;DHT22;3516;47.980;8.808;2024-01-27T17:54:22;-0.20;99.90
6954;DHT22;3516;47.980;8.808;2024-01-27T17:56:49;-0.20;99.90
6954;DHT22;3516;47.980;8.808;2024-01-27T17:59:20;-0.30;99.90
6954;DHT22;3516;47.980;8.808;2024-01-27T18:01:46;-0.10;99.90
6954;DHT22;3516;47.980;8.808;2024-01-27T18:04:13;-0.30;99.90
6954;DHT22;3516;47.980;8.808;2024-01-27T18:06:40;-0.30;99.90
6954;DHT22;3516;47.980;8.808;2024-01-27T18:09:07;-0.40;99.90
6954;DHT22;3516;47.980;8.808;2024-01-27T18:11:34;-0.40;99.90
6954;DHT22;3516;47.980;8.808;2024-01-27T18:14:00;-0.30;99.90
6954;DHT22;3516;47.980;8.808;2024-01-27T18:16:28;-0.40;99.90
6954;DHT22;3516;47.980;8.808;2024-01-27T18:18:55;-0.40;99.90
6954;DHT22;3516;47.980;8.808;2024-01-27T18:21:21;-0.40;99.90
6954;DHT22;3516;47.980;8.808;2024-01-27T18:23:48;-0.50;99.90
6954;DHT22;3516;47.980;8.808;2024-01-27T18:26:15;-0.50;99.90
6954;DHT22;3516;47.980;8.808;2024-01-27T18:28:41;-0.50;99.90
6954;DHT22;3516;47.980;8.808;2024-01-27T18:31:08;-0.60;99.90
6954;DHT22;3516;47.980;8.808;2024-01-27T18:33:36;-0.30;99.90
6954;DHT22;3516;47.980;8.808;2024-01-27T18:36:08;-0.60;99.90
6954;DHT22;3516;47.980;8.808;2024-01-27T18:38:38;-0.70;99.90
6954;DHT22;3516;47.980;8.808;2024-01-27T18:41:08;-1.00;99.90
6954;DHT22;3516;47.980;8.808;2024-01-27T18:43:45;-0.50;99.90
6954;DHT22;3516;47.980;8.808;2024-01-27T18:46:12;-0.70;99.90
6954;DHT22;3516;47.980;8.808;2024-01-27T18:48:42;-0.70;99.90
6954;DHT22;3516;47.980;8.808;2024-01-27T18:51:17;-0.60;99.90
6954;DHT22;3516;47.980;8.808;2024-01-27T18:53:43;-0.60;99.90
6954;DHT22;3516;47.980;8.808;2024-01-27T18:56:14;-1.20;99.90
6954;DHT22;3516;47.980;8.808;2024-01-27T18:58:41;-0.70;99.90
6954;DHT22;3516;47.980;8.808;2024-01-27T19:01:08;0.90;99.90
6954;DHT22;3516;47.980;8.808;2024-01-27T19:03:36;-0.80;99.90
6954;DHT22;3516;47.980;8.808;2024-01-27T19:06:05;0.60;99.90
6954;DHT22;3516;47.980;8.808;2024-01-27T19:08:32;-0.80;99.90
6954;DHT22;3516;47.980;8.808;2024-01-27T19:10:59;-0.80;99.90
6954;DHT22;3516;47.980;8.808;2024-01-27T19:13:25;-0.60;99.90
6954;DHT22;3516;47.980;8.808;2024-01-27T19:15:52;-0.80;99.90
6954;DHT22;3516;47.980;8.808;2024-01-27T19:18:20;-0.80;99.90
6954;DHT22;3516;47.980;8.808;2024-01-27T19:20:47;-0.80;99.90
6954;DHT22;3516;47.980;8.808;2024-01-27T19:23:15;-0.80;99.90
6954;DHT22;3516;47.980;8.808;2024-01-27T19:25:41;-0.70;99.90
6954;DHT22;3516;47.980;8.808;2024-01-27T19:28:08;-0.80;99.90
6954;DHT22;3516;47.980;8.808;2024-01-27T19:30:35;-0.80;99.90
6954;DHT22;3516;47.980;8.808;2024-01-27T19:33:01;-0.80;99.90
6954;DHT22;3516;47.980;8.808;2024-01-27T19:35:28;-0.80;99.90
6954;DHT22;3516;47.980;8.808;2024-01-27T19:37:54;-0.80;99.90
6954;DHT22;3516;47.980;8.808;2024-01-27T19:40:24;-0.80;99.90
6954;DHT22;3516;47.980;8.808;2024-01-27T19:42:51;-0.80;99.90
6954;DHT22;3516;47.980;8.808;2024-01-27T19:45:19;-0.80;99.90
6954;DHT22;3516;47.980;8.808;2024-01-27T19:47:46;-0.70;99.90
6954;DHT22;3516;47.980;8.808;2024-01-27T19:50:13;-0.80;99.90
6954;DHT22;3516;47.980;8.808;2024-01-27T19:52:40;-0.80;99.90
6954;DHT22;3516;47.980;8.808;2024-01-27T19:55:06;-0.80;99.90
6954;DHT22;3516;47.980;8.808;2024-01-27T19:57:36;-0.70;99.90
6954;DHT22;3516;47.980;8.808;2024-01-27T20:00:03;-0.80;99.90
6954;DHT22;3516;47.980;8.808;2024-01-27T20:02:29;-0.70;99.90
6954;DHT22;3516;47.980;8.808;2024-01-27T20:04:58;-0.70;99.90
6954;DHT22;3516;47.980;8.808;2024-01-27T20:07:24;-0.70;99.90
6954;DHT22;3516;47.980;8.808;2024-01-27T20:09:51;-0.70;99.90
6954;DHT22;3516;47.980;8.808;2024-01-27T20:12:17;-0.70;99.90
6954;DHT22;3516;47.980;8.808;2024-01-27T20:14:45;-0.70;99.90
6954;DHT22;3516;47.980;8.808;2024-01-27T20:17:12;-0.70;99.90
6954;DHT22;3516;47.980;8.808;2024-01-27T20:19:38;-0.70;99.90
6954;DHT22;3516;47.980;8.808;2024-01-27T20:22:05;-0.70;99.90
6954;DHT22;3516;47.980;8.808;2024-01-27T20:24:31;-0.60;99.90
6954;DHT22;3516;47.980;8.808;2024-01-27T20:26:58;-0.60;99.90
6954;DHT22;3516;47.980;8.808;2024-01-27T20:29:25;-0.60;99.90
6954;DHT22;3516;47.980;8.808;2024-01-27T20:31:52;-0.60;99.90
6954;DHT22;3516;47.980;8.808;2024-01-27T20:34:21;-0.60;99.90
6954;DHT22;3516;47.980;8.808;2024-01-27T20:36:47;-0.60;99.90
6954;DHT22;3516;47.980;8.808;2024-01-27T20:39:14;-0.60;99.90
6954;DHT22;3516;47.980;8.808;2024-01-27T20:41:41;-0.60;99.90
6954;DHT22;3516;47.980;8.808;2024-01-27T20:44:07;-0.60;99.90
6954;DHT22;3516;47.980;8.808;2024-01-27T20:46:34;-0.60;99.90
6954;DHT22;3516;47.980;8.808;2024-01-27T20:49:02;-0.50;99.90
6954;DHT22;3516;47.980;8.808;2024-01-27T20:51:29;-0.50;99.90
6954;DHT22;3516;47.980;8.808;2024-01-27T20:53:55;-0.50;99.90
6954;DHT22;3516;47.980;8.808;2024-01-27T20:56:22;-0.50;99.90
6954;DHT22;3516;47.980;8.808;2024-01-27T20:58:49;-0.50;99.90
6954;DHT22;3516;47.980;8.808;2024-01-27T21:01:16;-0.50;99.90
6954;DHT22;3516;47.980;8.808;2024-01-27T21:03:43;-0.50;99.90
6954;DHT22;3516;47.980;8.808;2024-01-27T21:06:12;-0.50;99.90
6954;DHT22;3516;47.980;8.808;2024-01-27T21:08:38;-0.50;99.90
6954;DHT22;3516;47.980;8.808;2024-01-27T21:11:05;-0.50;99.90
6954;DHT22;3516;47.980;8.808;2024-01-27T21:13:34;-0.40;99.90
6954;DHT22;3516;47.980;8.808;2024-01-27T21:16:00;-0.50;99.90
6954;DHT22;3516;47.980;8.808;2024-01-27T21:18:27;-0.50;99.90
6954;DHT22;3516;47.980;8.808;2024-01-27T21:20:54;-0.50;99.90
6954;DHT22;3516;47.980;8.808;2024-01-27T21:23:24;-0.50;99.90
6954;DHT22;3516;47.980;8.808;2024-01-27T21:25:50;-0.50;99.90
6954;DHT22;3516;47.980;8.808;2024-01-27T21:28:17;-0.50;99.90
6954;DHT22;3516;47.980;8.808;2024-01-27T21:30:44;-0.50;99.90
6954;DHT22;3516;47.980;8.808;2024-01-27T21:33:11;-0.50;99.90
6954;DHT22;3516;47.980;8.808;2024-01-27T21:35:37;-0.50;99.90
6954;DHT22;3516;47.980;8.808;2024-01-27T21:38:04;-0.50;99.90
6954;DHT22;3516;47.980;8.808;2024-01-27T21:40:32;-0.50;99.90
6954;DHT22;3516;47.980;8.808;2024-01-27T21:43:02;-0.50;99.90
6954;DHT22;3516;47.980;8.808;2024-01-27T21:45:28;-0.50;99.90
6954;DHT22;3516;47.980;8.808;2024-01-27T21:47:55;-0.50;99.90
6954;DHT22;3516;47.980;8.808;2024-01-27T21:50:22;-0.60;99.90
6954;DHT22;3516;47.980;8.808;2024-01-27T21:52:48;-0.60;99.90
6954;DHT22;3516;47.980;8.808;2024-01-27T21:55:15;-0.60;99.90
6954;DHT22;3516;47.980;8.808;2024-01-27T21:57:43;-0.60;99.90
6954;DHT22;3516;47.980;8.808;2024-01-27T22:00:10;-0.60;99.90
6954;DHT22;3516;47.980;8.808;2024-01-27T22:02:37;-0.60;99.90
6954;DHT22;3516;47.980;8.808;2024-01-27T22:05:04;-0.60;99.90
6954;DHT22;3516;47.980;8.808;2024-01-27T22:07:30;-0.60;99.90
6954;DHT22;3516;47.980;8.808;2024-01-27T22:09:57;-0.60;99.90
6954;DHT22;3516;47.980;8.808;2024-01-27T22:12:24;-0.60;99.90
6954;DHT22;3516;47.980;8.808;2024-01-27T22:14:52;-0.60;99.90
6954;DHT22;3516;47.980;8.808;2024-01-27T22:17:19;-0.60;99.90
6954;DHT22;3516;47.980;8.808;2024-01-27T22:19:45;-0.70;99.90
6954;DHT22;3516;47.980;8.808;2024-01-27T22:22:12;-0.70;99.90
6954;DHT22;3516;47.980;8.808;2024-01-27T22:24:38;-0.70;99.90
6954;DHT22;3516;47.980;8.808;2024-01-27T22:27:05;-0.80;99.90
6954;DHT22;3516;47.980;8.808;2024-01-27T22:29:32;-0.80;99.90
6954;DHT22;3516;47.980;8.808;2024-01-27T22:32:00;-0.90;99.90
6954;DHT22;3516;47.980;8.808;2024-01-27T22:34:28;-0.90;99.90
6954;DHT22;3516;47.980;8.808;2024-01-27T22:36:53;-0.90;99.90
6954;DHT22;3516;47.980;8.808;2024-01-27T22:39:20;-0.90;99.90
6954;DHT22;3516;47.980;8.808;2024-01-27T22:41:46;-0.90;99.90
6954;DHT22;3516;47.980;8.808;2024-01-27T22:44:13;-0.90;99.90
6954;DHT22;3516;47.980;8.808;2024-01-27T22:46:39;-1.00;99.90
6954;DHT22;3516;47.980;8.808;2024-01-27T22:49:07;-1.00;99.90
6954;DHT22;3516;47.980;8.808;2024-01-27T22:51:35;-1.00;99.90
6954;DHT22;3516;47.980;8.808;2024-01-27T22:54:02;-1.00;99.90
6954;DHT22;3516;47.980;8.808;2024-01-27T22:56:28;-1.10;99.90
6954;DHT22;3516;47.980;8.808;2024-01-27T22:58:55;-1.10;99.90
